Time;durP1;ratioP1;P1;durP2;ratioP2;P2;SDS_P1;SDS_P2;PMS_P1;PMS_P2;Temp;Humidity;BMP_temperature;BMP_pressure;BME280_temperature;BME280_humidity;BME280_pressure;Samples;Min_cycle;Max_cycle;Signal;HPM_P1;HPM_P2
2021/09/30 00:00:20;;;;;;;1.17;0.28;;;9.30;99.90;;;;;;6085569;23;20037;-90
2021/09/30 00:02:45;;;;;;;0.77;0.20;;;9.30;99.90;;;;;;6085679;23;20025;-92
2021/09/30 00:05:12;;;;;;;1.10;0.30;;;9.20;99.90;;;;;;6062167;23;20007;-91
2021/09/30 00:07:38;;;;;;;1.10;0.20;;;9.20;99.90;;;;;;6085705;23;20070;-91
2021/09/30 00:10:06;;;;;;;2.40;0.95;;;9.20;99.90;;;;;;6085722;23;20100;-92
2021/09/30 00:12:36;;;;;;;0.40;0.20;;;9.20;99.90;;;;;;6085488;23;20018;-91
2021/09/30 00:15:11;;;;;;;4.00;0.22;;;9.20;99.90;;;;;;6061550;23;20006;-91
2021/09/30 00:33:53;;;;;;;2.17;0.30;;;9.20;99.90;;;;;;6109481;23;20018;-89
2021/09/30 00:42:00;;;;;;;3.67;0.30;;;9.20;99.90;;;;;;6109722;23;20011;-91
2021/09/30 00:50:20;;;;;;;1.33;0.20;;;9.00;99.90;;;;;;6055265;23;20017;-90
2021/09/30 01:28:00;;;;;;;3.08;0.52;;;8.80;99.90;;;;;;6103822;23;20014;-92
2021/09/30 02:21:40;;;;;;;4.80;0.80;;;8.60;99.90;;;;;;6086834;23;20017;-91
2021/09/30 02:24:21;;;;;;;4.45;0.80;;;8.50;99.90;;;;;;6110009;23;20014;-91
2021/09/30 02:59:59;;;;;;;3.35;0.80;;;8.20;99.90;;;;;;6110345;23;20010;-91
2021/09/30 03:02:33;;;;;;;2.83;1.20;;;8.20;99.90;;;;;;6087777;23;20021;-92
2021/09/30 03:04:59;;;;;;;4.43;0.88;;;8.10;99.90;;;;;;6086234;23;20007;-92
2021/09/30 03:07:26;;;;;;;4.72;0.80;;;8.20;99.90;;;;;;6062425;23;20014;-92
2021/09/30 03:09:53;;;;;;;2.50;0.70;;;8.10;99.90;;;;;;6062569;23;20070;-92
2021/09/30 03:12:29;;;;;;;2.63;0.60;;;8.10;99.90;;;;;;6085678;23;20022;-92
2021/09/30 03:15:30;;;;;;;3.60;1.15;;;8.00;99.90;;;;;;6086158;23;20009;-93
2021/09/30 03:20:45;;;;;;;3.47;0.80;;;8.10;99.90;;;;;;6110134;23;20010;-91
2021/09/30 03:23:19;;;;;;;2.35;0.60;;;8.00;99.90;;;;;;6086037;23;20340;-92
2021/09/30 03:25:48;;;;;;;5.90;0.90;;;8.00;99.90;;;;;;6086137;23;20440;-92
2021/09/30 03:28:17;;;;;;;4.70;0.70;;;8.00;99.90;;;;;;6085882;23;20021;-92
2021/09/30 03:30:44;;;;;;;2.53;0.60;;;7.90;99.90;;;;;;6086079;23;20078;-92
2021/09/30 03:33:11;;;;;;;3.30;0.88;;;7.90;99.90;;;;;;6086169;23;20022;-92
2021/09/30 03:35:45;;;;;;;2.63;0.73;;;7.90;99.90;;;;;;6087584;23;20017;-92
2021/09/30 03:38:12;;;;;;;6.88;1.02;;;8.00;99.90;;;;;;6062191;23;20014;-92
2021/09/30 03:40:40;;;;;;;4.22;0.77;;;7.90;99.90;;;;;;6062080;23;20007;-92
2021/09/30 03:43:07;;;;;;;3.00;0.77;;;7.90;99.90;;;;;;6085390;23;20066;-91
2021/09/30 03:45:35;;;;;;;3.28;0.60;;;7.90;99.90;;;;;;6085470;23;20013;-92
2021/09/30 03:48:08;;;;;;;3.58;0.50;;;7.90;99.90;;;;;;6087075;23;20046;-91
2021/09/30 03:51:21;;;;;;;4.50;0.57;;;7.90;99.90;;;;;;6085970;23;20014;-92
2021/09/30 03:53:39;;;;;;;5.05;0.70;;;7.90;99.90;;;;;;6097062;23;20022;-92
2021/09/30 03:56:28;;;;;;;6.65;0.80;;;7.90;99.90;;;;;;6062070;23;20006;-91
2021/09/30 04:01:39;;;;;;;3.38;0.52;;;7.90;99.90;;;;;;6080692;23;20006;-91
2021/09/30 04:04:04;;;;;;;2.97;0.88;;;8.00;99.90;;;;;;6061485;23;20022;-92
2021/09/30 04:06:31;;;;;;;6.40;0.70;;;8.00;99.90;;;;;;6061903;23;20432;-93
2021/09/30 04:08:58;;;;;;;3.10;0.60;;;7.90;99.90;;;;;;6061667;23;20070;-93
2021/09/30 04:11:24;;;;;;;3.70;0.82;;;7.90;99.90;;;;;;6061682;23;20089;-93
2021/09/30 04:13:49;;;;;;;3.28;0.45;;;7.80;99.90;;;;;;6061973;23;20050;-94
2021/09/30 04:16:16;;;;;;;4.22;1.10;;;7.90;99.90;;;;;;6062071;23;20017;-94
2021/09/30 04:18:42;;;;;;;3.95;0.60;;;7.90;99.90;;;;;;6061138;23;20010;-93
2021/09/30 04:21:08;;;;;;;4.15;0.70;;;7.90;99.90;;;;;;6062182;23;20391;-93
2021/09/30 04:23:34;;;;;;;6.00;0.68;;;8.00;99.90;;;;;;6063825;23;20003;-92
2021/09/30 04:26:00;;;;;;;3.45;0.60;;;8.00;99.90;;;;;;6064341;23;20017;-93
2021/09/30 04:28:28;;;;;;;2.40;0.40;;;7.90;99.90;;;;;;6064991;23;20450;-92
2021/09/30 04:30:57;;;;;;;3.42;0.60;;;7.90;99.90;;;;;;6065977;23;20113;-93
2021/09/30 04:33:27;;;;;;;2.63;0.50;;;8.00;99.90;;;;;;6087532;23;20022;-93
2021/09/30 04:35:55;;;;;;;5.70;0.50;;;8.00;99.90;;;;;;6076635;23;20427;-92
2021/09/30 04:38:21;;;;;;;3.90;0.60;;;8.00;99.90;;;;;;6106428;23;20015;-92
2021/09/30 04:40:47;;;;;;;3.30;0.40;;;7.90;99.90;;;;;;6109923;23;19998;-93
2021/09/30 04:43:14;;;;;;;2.25;0.50;;;7.90;99.90;;;;;;6082185;23;20022;-93
2021/09/30 04:45:40;;;;;;;3.97;0.60;;;7.90;99.90;;;;;;6082507;23;20007;-93
2021/09/30 04:48:10;;;;;;;2.35;0.60;;;7.90;99.90;;;;;;6088116;23;20021;-92
2021/09/30 04:50:36;;;;;;;4.78;1.15;;;7.90;99.90;;;;;;6084489;23;20038;-92
2021/09/30 04:53:02;;;;;;;2.67;0.50;;;7.90;99.90;;;;;;6106516;23;20023;-93
2021/09/30 04:55:34;;;;;;;3.33;1.05;;;7.80;99.90;;;;;;6109147;23;20012;-92
2021/09/30 04:57:59;;;;;;;2.47;0.65;;;7.70;99.90;;;;;;6107107;23;20003;-93
2021/09/30 05:00:26;;;;;;;3.88;0.60;;;7.70;99.90;;;;;;6106294;23;20017;-93
2021/09/30 05:03:10;;;;;;;4.05;0.50;;;7.70;99.90;;;;;;6062219;23;20066;-93
2021/09/30 05:05:36;;;;;;;2.47;0.57;;;7.70;99.90;;;;;;6057089;23;20015;-94
2021/09/30 05:08:03;;;;;;;4.75;0.60;;;7.70;99.90;;;;;;6082676;23;20086;-93
2021/09/30 05:10:33;;;;;;;4.35;0.90;;;7.80;99.90;;;;;;6078521;23;20054;-92
2021/09/30 05:13:04;;;;;;;1.98;0.52;;;7.70;99.90;;;;;;6082225;23;20041;-93
2021/09/30 05:15:32;;;;;;;2.90;0.50;;;7.80;99.90;;;;;;6054375;23;20062;-92
2021/09/30 05:17:59;;;;;;;4.55;0.70;;;7.60;99.90;;;;;;6082443;23;20010;-92
2021/09/30 05:20:26;;;;;;;2.08;0.60;;;7.60;99.90;;;;;;6058580;23;20007;-94
2021/09/30 05:22:52;;;;;;;4.00;0.40;;;7.70;99.90;;;;;;6110752;23;20062;-93
2021/09/30 05:25:21;;;;;;;4.18;0.68;;;7.70;99.90;;;;;;6087144;23;20010;-92
2021/09/30 05:27:47;;;;;;;2.22;0.55;;;7.60;99.90;;;;;;6063702;23;20010;-94
2021/09/30 05:30:14;;;;;;;3.03;0.50;;;7.70;99.90;;;;;;6063300;23;20006;-94
2021/09/30 05:32:39;;;;;;;3.72;0.70;;;7.70;99.90;;;;;;6062587;23;20046;-94
2021/09/30 05:35:11;;;;;;;4.05;0.60;;;7.70;99.90;;;;;;6064414;23;20002;-94
2021/09/30 05:37:47;;;;;;;5.82;0.80;;;7.70;99.90;;;;;;6111576;23;20033;-94
2021/09/30 05:40:14;;;;;;;2.47;0.47;;;7.70;99.90;;;;;;6062909;23;20006;-95
2021/09/30 05:42:43;;;;;;;3.95;0.50;;;7.80;99.90;;;;;;6063296;23;20006;-94
2021/09/30 05:45:14;;;;;;;3.42;0.60;;;7.70;99.90;;;;;;6087131;23;20439;-94
2021/09/30 05:47:42;;;;;;;5.97;0.60;;;7.60;99.90;;;;;;6086464;23;20021;-94
2021/09/30 05:50:12;;;;;;;5.65;0.70;;;7.70;99.90;;;;;;6062996;23;20010;-94
2021/09/30 05:52:44;;;;;;;6.72;0.70;;;7.60;99.90;;;;;;6087529;23;20034;-95
2021/09/30 05:55:19;;;;;;;2.88;0.80;;;7.70;99.90;;;;;;6064354;23;20034;-95
2021/09/30 05:57:45;;;;;;;2.78;0.50;;;7.60;99.90;;;;;;6086574;23;20205;-93
2021/09/30 06:00:16;;;;;;;3.28;0.60;;;7.60;99.90;;;;;;6062071;23;20403;-94
2021/09/30 06:16:10;;;;;;;2.60;0.68;;;7.70;99.90;;;;;;6110156;23;20013;-94
2021/09/30 06:18:36;;;;;;;3.03;0.98;;;7.70;99.90;;;;;;6085954;23;20026;-93
2021/09/30 06:21:02;;;;;;;5.38;1.00;;;7.80;99.90;;;;;;6062339;23;20006;-91
2021/09/30 06:23:30;;;;;;;2.90;0.60;;;7.70;99.90;;;;;;6062175;23;20017;-92
2021/09/30 06:25:55;;;;;;;6.63;0.73;;;7.80;99.90;;;;;;6061991;23;20010;-94
2021/09/30 06:28:22;;;;;;;2.88;0.60;;;7.80;99.90;;;;;;6061716;23;20017;-94
2021/09/30 06:30:51;;;;;;;3.28;0.80;;;7.80;99.90;;;;;;6061937;23;20010;-93
2021/09/30 06:33:37;;;;;;;4.40;0.93;;;7.90;99.90;;;;;;6046475;23;20022;-93
2021/09/30 06:36:24;;;;;;;5.28;0.60;;;7.90;99.90;;;;;;6066322;23;20003;-93
2021/09/30 06:38:50;;;;;;;2.72;0.60;;;8.00;99.90;;;;;;6061652;23;20062;-94
2021/09/30 06:41:17;;;;;;;2.28;0.60;;;8.10;99.90;;;;;;6061548;23;20010;-93
2021/09/30 06:43:42;;;;;;;8.50;0.80;;;8.10;99.90;;;;;;6061694;23;20069;-92
2021/09/30 06:46:27;;;;;;;7.40;0.70;;;8.10;99.90;;;;;;6089180;23;20046;-93
2021/09/30 06:48:58;;;;;;;3.03;0.50;;;8.20;99.90;;;;;;6070637;23;20240;-92
2021/09/30 06:51:40;;;;;;;4.82;0.40;;;8.20;99.90;;;;;;6107051;23;20014;-93
2021/09/30 06:54:07;;;;;;;3.03;0.65;;;8.30;99.90;;;;;;6061604;23;20053;-92
2021/09/30 06:56:53;;;;;;;3.92;0.50;;;8.30;99.90;;;;;;6089663;23;20062;-93
2021/09/30 06:59:41;;;;;;;5.80;0.60;;;8.40;99.90;;;;;;6076262;23;20074;-93
2021/09/30 07:02:27;;;;;;;2.38;0.57;;;8.60;99.90;;;;;;6088998;23;20015;-93
2021/09/30 07:05:15;;;;;;;3.67;0.60;;;8.90;99.90;;;;;;6081931;23;20021;-92
2021/09/30 07:08:02;;;;;;;5.32;0.68;;;9.10;99.90;;;;;;6065031;23;20067;-92
2021/09/30 07:10:28;;;;;;;4.32;0.50;;;9.10;99.90;;;;;;6085681;23;20023;-92
2021/09/30 07:12:55;;;;;;;2.97;0.52;;;9.20;99.90;;;;;;6085358;23;20023;-92
2021/09/30 07:15:20;;;;;;;3.17;0.38;;;9.20;99.90;;;;;;6061413;23;20053;-93
2021/09/30 07:17:46;;;;;;;2.88;0.60;;;9.30;99.90;;;;;;6061375;23;20014;-93
2021/09/30 07:20:13;;;;;;;4.13;0.70;;;9.40;99.90;;;;;;6085724;23;20010;-92
2021/09/30 07:22:38;;;;;;;3.97;0.68;;;9.70;99.90;;;;;;6085313;23;20010;-92
2021/09/30 07:25:05;;;;;;;3.65;0.60;;;9.70;99.90;;;;;;6061615;23;20012;-94
2021/09/30 07:27:31;;;;;;;6.35;0.60;;;9.90;99.90;;;;;;6086010;23;20014;-92
2021/09/30 07:29:57;;;;;;;8.70;0.50;;;9.90;99.90;;;;;;6109400;23;20009;-91
2021/09/30 07:32:24;;;;;;;4.57;0.65;;;10.00;99.90;;;;;;6061164;23;20085;-92
2021/09/30 07:34:50;;;;;;;6.78;0.93;;;10.10;99.90;;;;;;6061873;23;20011;-93
2021/09/30 07:37:16;;;;;;;7.45;0.65;;;10.20;99.90;;;;;;6085675;23;20048;-92
2021/09/30 07:39:43;;;;;;;5.97;1.05;;;10.30;99.90;;;;;;6085639;23;20069;-92
2021/09/30 07:42:09;;;;;;;6.28;0.50;;;10.50;99.90;;;;;;6061625;23;20030;-92
2021/09/30 07:44:55;;;;;;;5.35;0.60;;;10.50;99.90;;;;;;6085271;23;20006;-93
2021/09/30 07:47:21;;;;;;;3.78;0.40;;;10.60;99.90;;;;;;6078786;23;20050;-93
2021/09/30 07:49:46;;;;;;;3.10;0.50;;;10.80;99.90;;;;;;6079305;23;20007;-93
2021/09/30 07:52:12;;;;;;;7.32;0.70;;;10.90;99.90;;;;;;6054958;23;20026;-94
2021/09/30 07:54:38;;;;;;;3.90;0.60;;;11.00;99.90;;;;;;6055092;23;20203;-93
2021/09/30 07:57:04;;;;;;;4.07;0.60;;;11.20;99.90;;;;;;6054102;23;20007;-93
2021/09/30 07:59:30;;;;;;;4.00;0.60;;;11.30;99.90;;;;;;6079005;23;20007;-94
2021/09/30 08:01:55;;;;;;;3.60;0.60;;;11.40;99.90;;;;;;6079115;23;20050;-93
2021/09/30 08:04:21;;;;;;;3.53;0.50;;;11.40;99.90;;;;;;6056175;23;20023;-94
2021/09/30 08:06:47;;;;;;;4.07;0.50;;;11.40;99.90;;;;;;6033344;23;20046;-93
2021/09/30 08:09:12;;;;;;;5.20;0.40;;;11.30;99.90;;;;;;6081783;23;20064;-92
2021/09/30 08:11:38;;;;;;;3.85;0.50;;;11.40;99.90;;;;;;6033133;23;20007;-93
2021/09/30 08:14:04;;;;;;;5.57;0.70;;;11.50;99.90;;;;;;6057003;23;20102;-93
2021/09/30 08:16:31;;;;;;;4.28;0.50;;;11.40;99.90;;;;;;6055965;23;20542;-93
2021/09/30 08:18:58;;;;;;;6.40;0.77;;;11.60;99.90;;;;;;6056510;23;20062;-93
2021/09/30 08:21:24;;;;;;;9.70;0.95;;;11.90;99.90;;;;;;6081426;23;20006;-91
2021/09/30 08:23:50;;;;;;;5.63;0.50;;;12.00;99.90;;;;;;6065140;23;20007;-94
2021/09/30 08:26:19;;;;;;;2.13;0.40;;;12.20;99.90;;;;;;6110999;23;20018;-91
2021/09/30 08:28:50;;;;;;;3.53;0.40;;;12.40;99.90;;;;;;6087135;23;20013;-92
2021/09/30 08:31:16;;;;;;;4.80;0.40;;;12.50;99.90;;;;;;6062708;23;20119;-92
2021/09/30 08:33:42;;;;;;;4.30;0.82;;;12.60;99.90;;;;;;6062480;23;20014;-92
2021/09/30 08:36:12;;;;;;;2.45;0.60;;;12.60;99.90;;;;;;6087076;23;20089;-93
2021/09/30 08:38:38;;;;;;;3.63;0.40;;;12.60;99.90;;;;;;6086968;23;20038;-93
2021/09/30 08:41:04;;;;;;;2.60;0.50;;;12.70;99.90;;;;;;6086889;23;20006;-94
2021/09/30 08:43:30;;;;;;;5.32;0.68;;;12.50;99.90;;;;;;6062491;23;20038;-94
2021/09/30 08:45:56;;;;;;;2.63;0.40;;;12.50;99.90;;;;;;6083182;23;20067;-93
2021/09/30 08:48:22;;;;;;;4.38;0.40;;;12.90;99.90;;;;;;6086623;23;20038;-93
2021/09/30 08:50:48;;;;;;;2.60;0.60;;;13.10;99.90;;;;;;6062678;23;20006;-93
2021/09/30 08:53:14;;;;;;;3.85;0.50;;;13.10;99.90;;;;;;6062181;23;20019;-95
2021/09/30 08:55:44;;;;;;;2.42;0.45;;;13.20;99.90;;;;;;6063778;23;20006;-95
2021/09/30 08:58:10;;;;;;;3.70;0.60;;;13.10;99.90;;;;;;6086244;23;20082;-94
2021/09/30 09:00:39;;;;;;;2.08;0.40;;;13.20;99.90;;;;;;6062671;23;20014;-92
2021/09/30 09:03:05;;;;;;;5.75;0.70;;;13.30;99.90;;;;;;6086504;23;20010;-93
2021/09/30 09:05:31;;;;;;;3.72;0.70;;;13.10;99.90;;;;;;6086496;23;20007;-94
2021/09/30 09:07:59;;;;;;;5.20;0.50;;;13.10;99.90;;;;;;6062237;23;20101;-93
2021/09/30 09:10:55;;;;;;;2.42;0.55;;;13.20;99.90;;;;;;6086918;23;20011;-90
2021/09/30 09:13:24;;;;;;;2.72;0.40;;;13.60;99.90;;;;;;6079827;23;20021;-94
2021/09/30 09:15:59;;;;;;;3.08;0.35;;;13.70;99.90;;;;;;6086244;23;20007;-92
2021/09/30 09:18:27;;;;;;;5.60;0.50;;;13.60;99.90;;;;;;6086410;23;20010;-94
2021/09/30 09:21:15;;;;;;;2.60;0.80;;;13.80;99.90;;;;;;6086566;23;20012;-93
2021/09/30 09:24:02;;;;;;;3.97;0.50;;;13.70;99.90;;;;;;6086849;23;20019;-94
2021/09/30 09:26:32;;;;;;;3.92;0.40;;;13.70;99.90;;;;;;6111005;23;20014;-94
2021/09/30 09:29:05;;;;;;;5.20;0.50;;;13.90;99.90;;;;;;6075937;23;20007;-91
2021/09/30 09:31:35;;;;;;;4.55;0.40;;;14.10;99.90;;;;;;6082172;23;20018;-93
2021/09/30 09:34:37;;;;;;;5.28;0.40;;;14.20;99.90;;;;;;6086072;23;20018;-92
2021/09/30 09:37:32;;;;;;;3.67;0.40;;;14.70;99.90;;;;;;6081712;23;20022;-91
2021/09/30 09:39:59;;;;;;;4.57;0.50;;;14.60;99.90;;;;;;6057667;23;20028;-92
2021/09/30 09:42:31;;;;;;;4.32;0.35;;;14.00;99.90;;;;;;6080702;23;20010;-93
2021/09/30 09:45:00;;;;;;;1.63;0.30;;;14.30;99.90;;;;;;6109709;23;20010;-91
2021/09/30 09:47:28;;;;;;;3.92;0.50;;;14.50;99.90;;;;;;6061979;23;20056;-91
2021/09/30 09:50:17;;;;;;;1.65;0.30;;;14.60;99.90;;;;;;6045991;23;20036;-93
2021/09/30 09:52:50;;;;;;;3.08;0.40;;;14.80;99.90;;;;;;6060458;23;20014;-93
2021/09/30 09:55:22;;;;;;;3.00;0.45;;;14.40;99.90;;;;;;6081424;23;20196;-92
2021/09/30 09:58:05;;;;;;;4.88;0.82;;;14.30;99.90;;;;;;6085064;23;20022;-94
2021/09/30 10:00:36;;;;;;;3.75;0.50;;;13.90;99.90;;;;;;6085914;23;20435;-93
2021/09/30 10:03:22;;;;;;;4.78;0.30;;;13.90;99.90;;;;;;6085682;23;20011;-93
2021/09/30 10:05:49;;;;;;;7.82;0.85;;;14.00;99.90;;;;;;6085667;23;20015;-93
2021/09/30 10:08:15;;;;;;;3.83;0.40;;;14.00;99.90;;;;;;6085614;23;20439;-93
2021/09/30 10:10:42;;;;;;;3.95;0.30;;;14.10;99.90;;;;;;6085731;23;20014;-94
2021/09/30 10:13:08;;;;;;;3.42;0.40;;;14.60;99.90;;;;;;6085416;23;20022;-93
2021/09/30 10:15:36;;;;;;;2.92;0.30;;;14.80;99.90;;;;;;6062285;23;20013;-94
2021/09/30 10:18:03;;;;;;;1.70;0.30;;;15.20;99.90;;;;;;6086035;23;20029;-92
2021/09/30 10:20:30;;;;;;;3.15;0.35;;;15.10;99.90;;;;;;6085701;23;20038;-93
2021/09/30 10:22:58;;;;;;;3.30;0.40;;;15.10;99.90;;;;;;6085819;23;20070;-93
2021/09/30 10:25:35;;;;;;;3.92;0.52;;;15.20;99.90;;;;;;6061751;23;20006;-94
2021/09/30 10:28:03;;;;;;;5.18;1.10;;;14.50;99.90;;;;;;6085530;23;20348;-93
2021/09/30 10:30:49;;;;;;;4.97;0.75;;;14.60;99.90;;;;;;6085940;23;20006;-93
2021/09/30 10:33:42;;;;;;;6.78;0.40;;;14.40;99.90;;;;;;6085607;23;20118;-92
2021/09/30 10:36:27;;;;;;;5.25;0.52;;;14.50;99.90;;;;;;6085920;23;20009;-92
2021/09/30 10:39:13;;;;;;;3.30;0.40;;;14.70;99.90;;;;;;6085366;23;20440;-93
2021/09/30 10:41:38;;;;;;;4.82;0.30;;;14.90;99.90;;;;;;6109978;23;20471;-92
2021/09/30 10:44:16;;;;;;;4.75;0.30;;;14.90;99.90;;;;;;6109456;23;20010;-92
2021/09/30 10:46:42;;;;;;;3.15;0.35;;;14.50;99.90;;;;;;6085312;23;20037;-93
2021/09/30 10:49:30;;;;;;;5.13;0.40;;;14.50;99.90;;;;;;6085418;23;20010;-90
2021/09/30 10:52:14;;;;;;;3.58;0.30;;;14.50;99.90;;;;;;6085451;23;20018;-93
2021/09/30 10:54:41;;;;;;;2.22;0.20;;;14.70;99.90;;;;;;6110806;23;20015;-93
2021/09/30 10:57:32;;;;;;;5.40;0.22;;;15.20;99.90;;;;;;6061756;23;20030;-92
2021/09/30 10:59:58;;;;;;;3.00;0.30;;;15.80;99.90;;;;;;6108801;23;20018;-91
2021/09/30 11:02:23;;;;;;;6.22;0.30;;;16.00;99.90;;;;;;6061207;23;20010;-92
2021/09/30 11:05:05;;;;;;;5.68;0.40;;;15.50;99.90;;;;;;6085061;23;20021;-92
2021/09/30 11:07:32;;;;;;;5.00;0.30;;;15.60;99.90;;;;;;6084980;23;20018;-91
2021/09/30 11:10:22;;;;;;;2.65;0.30;;;15.40;99.90;;;;;;6084901;23;20013;-89
2021/09/30 11:13:06;;;;;;;;;;;15.10;99.90;;;;;;6085648;23;20102;-89
2021/09/30 11:16:13;;;;;;;2.70;0.30;;;15.20;99.90;;;;;;6060289;23;19921;-88
2021/09/30 11:18:51;;;;;;;3.50;0.30;;;15.40;99.90;;;;;;6085247;23;20065;-89
2021/09/30 11:21:32;;;;;;;3.03;0.20;;;14.80;99.90;;;;;;6084813;23;20037;-90
2021/09/30 11:24:08;;;;;;;2.05;0.30;;;15.50;99.90;;;;;;6084839;23;20014;-88
2021/09/30 11:26:54;;;;;;;2.60;0.30;;;15.60;99.90;;;;;;6084649;23;20014;-89
2021/09/30 11:29:26;;;;;;;3.08;0.20;;;15.40;99.90;;;;;;6084522;23;20018;-88
2021/09/30 11:31:57;;;;;;;3.45;0.20;;;15.70;99.90;;;;;;6084535;23;20435;-90
2021/09/30 11:34:37;;;;;;;3.20;0.20;;;14.90;99.90;;;;;;6108727;23;20019;-89
2021/09/30 11:37:14;;;;;;;;;;;15.40;99.90;;;;;;6061000;23;20006;-89
2021/09/30 11:39:40;;;;;;;2.80;0.20;;;15.90;99.90;;;;;;6060822;23;19905;-90
2021/09/30 11:42:06;;;;;;;2.08;0.20;;;15.70;99.90;;;;;;6060244;23;20021;-88
2021/09/30 11:44:53;;;;;;;4.22;0.20;;;15.10;99.90;;;;;;6060799;23;20007;-90
2021/09/30 11:47:20;;;;;;;3.10;0.10;;;15.50;99.90;;;;;;6030881;23;20030;-89
2021/09/30 11:49:45;;;;;;;4.15;0.20;;;15.40;99.90;;;;;;6079078;23;20015;-91
2021/09/30 11:52:12;;;;;;;1.67;0.10;;;15.10;99.90;;;;;;6078574;23;20092;-89
2021/09/30 11:54:38;;;;;;;2.10;0.15;;;14.80;99.90;;;;;;6054858;23;20034;-89
2021/09/30 11:57:04;;;;;;;3.50;0.20;;;14.60;99.90;;;;;;6054497;23;20007;-89
2021/09/30 11:59:32;;;;;;;2.70;0.20;;;14.70;99.90;;;;;;6055240;23;20007;-93
2021/09/30 12:02:05;;;;;;;1.15;0.10;;;15.00;99.90;;;;;;6078639;23;20011;-87
2021/09/30 12:04:44;;;;;;;1.60;0.10;;;15.30;99.90;;;;;;6079057;23;20035;-88
2021/09/30 12:07:19;;;;;;;4.15;0.20;;;15.00;99.90;;;;;;6054208;23;20071;-88
2021/09/30 12:09:47;;;;;;;2.63;0.17;;;15.40;99.90;;;;;;6054945;23;20007;-90
2021/09/30 12:12:13;;;;;;;5.13;0.20;;;15.40;99.90;;;;;;6054437;23;20011;-87
2021/09/30 12:14:46;;;;;;;2.20;0.65;;;15.40;99.90;;;;;;6055084;23;20063;-90
2021/09/30 12:17:14;;;;;;;3.20;0.30;;;15.60;99.90;;;;;;6055157;23;20007;-89
2021/09/30 12:19:43;;;;;;;2.65;0.20;;;15.20;99.90;;;;;;6031281;23;20027;-89
2021/09/30 12:22:17;;;;;;;4.68;0.30;;;15.30;99.90;;;;;;6055104;23;20010;-91
2021/09/30 12:24:55;;;;;;;2.00;0.20;;;15.10;99.90;;;;;;6097780;23;20475;-88
2021/09/30 12:27:24;;;;;;;3.45;0.20;;;15.60;99.90;;;;;;6084722;23;20014;-90
2021/09/30 12:29:52;;;;;;;2.67;0.20;;;15.60;99.90;;;;;;6085053;23;20380;-91
2021/09/30 12:32:27;;;;;;;1.77;0.20;;;15.70;99.90;;;;;;6084508;23;20017;-90
2021/09/30 12:35:08;;;;;;;5.15;0.20;;;15.90;99.90;;;;;;6068374;23;20011;-90
2021/09/30 12:37:37;;;;;;;2.33;0.20;;;15.70;99.90;;;;;;6077616;23;20066;-87
2021/09/30 12:40:10;;;;;;;1.80;0.20;;;15.50;99.90;;;;;;6079944;23;20033;-88
2021/09/30 12:42:38;;;;;;;2.70;0.17;;;15.10;99.90;;;;;;6105404;23;20055;-88
2021/09/30 12:45:06;;;;;;;3.75;0.10;;;15.30;99.90;;;;;;6084920;23;20388;-95
2021/09/30 12:47:38;;;;;;;1.85;0.10;;;15.10;99.90;;;;;;6084575;23;20017;-88
2021/09/30 12:50:13;;;;;;;1.42;0.10;;;15.40;99.90;;;;;;6085134;23;20018;-90
2021/09/30 12:52:40;;;;;;;2.33;0.20;;;15.50;99.90;;;;;;6062320;23;20006;-90
2021/09/30 12:55:20;;;;;;;3.08;0.20;;;15.40;99.90;;;;;;6086562;23;20014;-90
2021/09/30 12:57:47;;;;;;;1.95;0.20;;;15.70;99.90;;;;;;6086416;23;20017;-91
2021/09/30 13:00:17;;;;;;;1.63;0.10;;;15.40;99.90;;;;;;6086435;23;20013;-88
2021/09/30 13:02:43;;;;;;;2.17;0.10;;;15.50;99.90;;;;;;6086149;23;20029;-86
2021/09/30 13:05:10;;;;;;;4.35;0.25;;;15.60;99.90;;;;;;6086355;23;20038;-86
2021/09/30 13:07:56;;;;;;;2.78;0.10;;;15.50;99.90;;;;;;6062131;23;20003;-88
2021/09/30 13:10:30;;;;;;;2.30;0.20;;;15.60;99.90;;;;;;6062221;23;20015;-87
2021/09/30 13:13:13;;;;;;;2.70;0.10;;;15.80;99.90;;;;;;6062061;23;20018;-87
2021/09/30 13:15:44;;;;;;;3.08;0.20;;;15.80;99.90;;;;;;6085972;23;20006;-89
2021/09/30 13:18:14;;;;;;;4.95;0.30;;;15.70;99.90;;;;;;6085437;23;20011;-87
2021/09/30 13:20:41;;;;;;;1.95;0.20;;;15.40;99.90;;;;;;6111735;23;20082;-87
2021/09/30 13:23:09;;;;;;;1.98;0.10;;;15.50;99.90;;;;;;6061916;23;20010;-87
2021/09/30 13:25:35;;;;;;;2.95;0.20;;;15.50;99.90;;;;;;6086149;23;20305;-90
2021/09/30 13:28:02;;;;;;;3.55;0.17;;;15.30;99.90;;;;;;6110192;23;20006;-89
2021/09/30 13:30:31;;;;;;;1.80;0.20;;;15.20;99.90;;;;;;6111304;23;20519;-89
2021/09/30 13:33:01;;;;;;;2.35;0.20;;;15.10;99.90;;;;;;6069955;23;20030;-89
2021/09/30 13:35:31;;;;;;;1.60;0.10;;;15.10;99.90;;;;;;6080717;23;20010;-92
2021/09/30 13:37:57;;;;;;;3.45;0.20;;;15.40;99.90;;;;;;6080839;23;20013;-90
2021/09/30 13:40:24;;;;;;;3.40;0.30;;;15.30;99.90;;;;;;6061822;23;20007;-90
2021/09/30 13:42:50;;;;;;;3.25;0.10;;;15.20;99.90;;;;;;6109625;23;20034;-90
2021/09/30 13:45:19;;;;;;;2.10;0.20;;;15.10;99.90;;;;;;6085659;23;20016;-87
2021/09/30 13:47:44;;;;;;;2.90;0.10;;;15.00;99.90;;;;;;6109579;23;20015;-86
2021/09/30 13:50:16;;;;;;;1.88;0.20;;;15.10;99.90;;;;;;6061320;23;20045;-87
2021/09/30 13:52:44;;;;;;;1.58;0.10;;;15.00;99.90;;;;;;6085558;23;20015;-88
2021/09/30 13:55:11;;;;;;;2.30;0.20;;;14.90;99.90;;;;;;6085728;23;20013;-89
2021/09/30 13:57:37;;;;;;;1.77;0.10;;;14.80;99.90;;;;;;6085600;23;20007;-88
2021/09/30 14:00:06;;;;;;;1.67;0.10;;;14.80;99.90;;;;;;6061597;23;20006;-88
2021/09/30 14:02:32;;;;;;;1.15;0.13;;;14.90;99.90;;;;;;6060578;23;20003;-88
2021/09/30 14:04:59;;;;;;;3.42;0.20;;;14.80;99.90;;;;;;6061609;23;20014;-87
2021/09/30 14:07:25;;;;;;;2.95;0.10;;;15.00;99.90;;;;;;6085466;23;20081;-87
2021/09/30 14:09:51;;;;;;;2.85;0.10;;;14.90;99.90;;;;;;6085665;23;20014;-91
2021/09/30 14:12:17;;;;;;;3.42;0.10;;;14.90;99.90;;;;;;6061542;23;20021;-88
2021/09/30 14:14:42;;;;;;;1.42;0.10;;;14.90;99.90;;;;;;6061298;23;20010;-89
2021/09/30 14:17:08;;;;;;;1.60;0.20;;;14.90;99.90;;;;;;6085430;23;20013;-87
2021/09/30 14:19:34;;;;;;;2.53;0.25;;;14.80;99.90;;;;;;6085625;23;20006;-89
2021/09/30 14:22:00;;;;;;;2.30;0.20;;;14.70;99.90;;;;;;6085913;23;20003;-89
2021/09/30 14:24:30;;;;;;;2.25;0.38;;;14.60;99.90;;;;;;6061286;23;20018;-87
2021/09/30 14:26:56;;;;;;;5.45;0.30;;;14.60;99.90;;;;;;6099916;23;20333;-87
2021/09/30 14:29:21;;;;;;;1.85;0.20;;;14.70;99.90;;;;;;6061162;23;20030;-88
2021/09/30 14:31:47;;;;;;;2.35;0.20;;;14.60;99.90;;;;;;6084272;23;20030;-87
2021/09/30 14:34:13;;;;;;;4.50;0.20;;;14.70;99.90;;;;;;6061401;23;20010;-87
2021/09/30 14:36:38;;;;;;;2.42;0.20;;;14.60;99.90;;;;;;6082538;23;20007;-88
2021/09/30 14:39:06;;;;;;;4.13;0.30;;;14.60;99.90;;;;;;6110653;23;20002;-88
2021/09/30 14:41:32;;;;;;;4.10;0.30;;;14.60;99.90;;;;;;6081388;23;20007;-87
2021/09/30 14:43:58;;;;;;;2.47;0.30;;;14.50;99.90;;;;;;6061285;23;20030;-87
2021/09/30 14:46:24;;;;;;;2.75;0.30;;;14.60;99.90;;;;;;6110509;23;20026;-89
2021/09/30 14:48:50;;;;;;;4.88;0.40;;;14.50;99.90;;;;;;6110375;23;20062;-90
2021/09/30 14:51:16;;;;;;;4.25;0.32;;;14.40;99.90;;;;;;6061479;23;20002;-89
2021/09/30 14:53:42;;;;;;;1.65;0.30;;;14.50;99.90;;;;;;6085290;23;20022;-90
2021/09/30 14:56:08;;;;;;;1.15;0.25;;;14.40;99.90;;;;;;6085549;23;20103;-90
2021/09/30 14:58:35;;;;;;;1.73;0.17;;;14.60;99.90;;;;;;6085210;23;20017;-92
2021/09/30 15:01:02;;;;;;;5.35;0.30;;;14.50;99.90;;;;;;6085544;23;20010;-91
2021/09/30 15:03:27;;;;;;;3.00;0.20;;;14.50;99.90;;;;;;6061436;23;20097;-94
2021/09/30 15:05:53;;;;;;;2.08;0.20;;;14.60;99.90;;;;;;6073974;23;20451;-92
2021/09/30 15:08:19;;;;;;;2.83;0.20;;;14.60;99.90;;;;;;6085566;23;20007;-93
2021/09/30 15:10:45;;;;;;;2.72;0.15;;;14.50;99.90;;;;;;6083736;23;20011;-89
2021/09/30 15:13:10;;;;;;;4.47;0.40;;;14.40;99.90;;;;;;6084797;23;20026;-93
2021/09/30 15:15:36;;;;;;;4.30;0.40;;;14.50;99.90;;;;;;6081717;23;20011;-91
2021/09/30 15:18:06;;;;;;;1.95;0.10;;;14.50;99.90;;;;;;6080742;23;20017;-92
2021/09/30 15:23:04;;;;;;;2.77;0.17;;;14.50;99.90;;;;;;6078515;23;20083;-92
2021/09/30 15:25:31;;;;;;;1.42;0.20;;;14.40;99.90;;;;;;6072611;23;20084;-93
2021/09/30 15:27:59;;;;;;;0.85;0.10;;;14.40;99.90;;;;;;6061185;23;20034;-93
2021/09/30 15:30:25;;;;;;;3.60;0.20;;;14.30;99.90;;;;;;6085480;23;20007;-92
2021/09/30 15:32:53;;;;;;;1.20;0.10;;;14.40;99.90;;;;;;6085099;23;20026;-92
2021/09/30 15:35:19;;;;;;;1.25;0.10;;;14.50;99.90;;;;;;6085156;23;20002;-92
2021/09/30 15:37:44;;;;;;;1.15;0.10;;;14.40;99.90;;;;;;6084782;23;20015;-94
2021/09/30 15:40:11;;;;;;;2.28;0.10;;;14.30;99.90;;;;;;6061041;23;20422;-93
2021/09/30 15:42:36;;;;;;;3.47;0.20;;;14.30;99.90;;;;;;6060855;23;20030;-95
2021/09/30 15:45:03;;;;;;;3.40;0.32;;;14.20;99.90;;;;;;6060640;23;20039;-91
2021/09/30 15:47:28;;;;;;;2.13;0.10;;;14.20;99.90;;;;;;6084982;23;20388;-93
2021/09/30 15:49:54;;;;;;;1.23;0.10;;;14.20;99.90;;;;;;6085054;23;20054;-94
2021/09/30 15:52:19;;;;;;;0.70;0.10;;;14.20;99.90;;;;;;6084639;23;20010;-91
2021/09/30 15:54:45;;;;;;;2.92;0.20;;;14.10;99.90;;;;;;6084584;23;20034;-90